KHEY

Hanchey AHP (Fort Rucker) Heliport

Fort Rucker Ozark, Alabama, USA
METAR KHEY 252158Z AUTO 24003KT 9SM BKN140 27/21 A2991 RMK AO2 LTG DSNT NW SLP128 T02650209
Observed Flight Rules
May-25 @ 21:58 UTC (39 minutes ago) Visual Flight Rules
Wind Visibility Clouds
240° at 3 knots 9 miles
  • Broken at 14,000' AGL
Temperatures Readings
Current 27°C / 81°F
Dewpoint 21°C / 70°F
Humidity 70%
Altimeter 29.91" Hg
Pressure 1012.8 hPa
Elevation 97
METAR KHEY 252158Z AUTO 24003KT 9SM BKN140 27/21 A2991 RMK AO2 LTG DSNT NW SLP128 T02650209
Observed Flight Rules
May-25 @ 21:58 UTC
(39 minutes ago)
VFR
Wind Visibility
240° at 3 knots 9 miles
Clouds
  • Broken at 14,000' AGL
Temperature Dewpoint
27°C / 81°F 21°C / 70°F
Humidity Altimeter Pressure
70% 29.91" Hg 1012.8 hPa